createdAt,value
2023-10-01T00:00:02.549Z,0
2023-10-01T00:15:03.041Z,0
2023-10-01T00:30:02.424Z,0
2023-10-01T00:45:03.035Z,0
2023-10-01T01:00:02.306Z,0
2023-10-01T01:15:02.930Z,0
2023-10-01T01:30:02.183Z,0
2023-10-01T01:45:02.613Z,0
2023-10-01T02:00:03.069Z,0
2023-10-01T02:15:02.494Z,0
2023-10-01T02:30:03.008Z,0
2023-10-01T02:45:02.353Z,0
2023-10-01T03:00:03.041Z,0
2023-10-01T03:15:02.754Z,0
2023-10-01T03:30:02.838Z,0
2023-10-01T03:45:02.134Z,0
2023-10-01T04:00:02.555Z,0
2023-10-01T04:15:03.385Z,0
2023-10-01T04:30:03.441Z,0
2023-10-01T04:45:03.101Z,0
2023-10-01T05:00:02.270Z,0
2023-10-01T05:15:02.718Z,0
2023-10-01T05:30:03.189Z,0
2023-10-01T05:45:02.590Z,2
2023-10-01T06:00:03.062Z,2
2023-10-01T06:15:02.478Z,11
2023-10-01T06:30:03.049Z,34
2023-10-01T06:45:02.342Z,38
2023-10-01T07:00:02.973Z,39
2023-10-01T07:15:02.239Z,50
2023-10-01T07:30:02.685Z,60
2023-10-01T07:45:03.141Z,70
2023-10-01T08:00:02.564Z,94
2023-10-01T08:15:03.066Z,94
2023-10-01T08:30:02.455Z,89
2023-10-01T08:45:03.066Z,92
2023-10-01T09:00:02.360Z,118
2023-10-01T09:15:02.784Z,142
2023-10-01T09:30:02.232Z,158
2023-10-01T09:45:02.646Z,157
2023-10-01T10:00:03.094Z,210
2023-10-01T10:15:02.529Z,353
2023-10-01T10:30:03.091Z,208
2023-10-01T10:45:02.429Z,216
2023-10-01T11:00:03.100Z,274
2023-10-01T11:15:02.347Z,391
2023-10-01T11:30:02.741Z,279
2023-10-01T11:45:03.220Z,369
2023-10-01T12:00:02.626Z,483
2023-10-01T12:15:03.114Z,500
2023-10-01T12:30:02.477Z,281
2023-10-01T12:45:03.159Z,352
2023-10-01T13:00:02.428Z,470
2023-10-01T13:15:02.833Z,362
2023-10-01T13:30:02.237Z,356
2023-10-01T13:45:02.688Z,275
2023-10-01T14:00:03.229Z,249
2023-10-01T14:15:02.585Z,246
2023-10-01T14:30:03.123Z,160
2023-10-01T14:45:02.454Z,151
2023-10-01T15:00:03.123Z,105
2023-10-01T15:15:06.197Z,96
2023-10-01T15:30:02.770Z,85
2023-10-01T15:45:03.264Z,53
2023-10-01T16:00:02.641Z,43
2023-10-01T16:15:03.137Z,28
2023-10-01T16:30:02.555Z,17
2023-10-01T16:45:03.151Z,7
2023-10-01T17:00:02.431Z,0
2023-10-01T17:15:02.848Z,0
2023-10-01T17:30:02.283Z,0
2023-10-01T17:45:02.706Z,0
2023-10-01T18:00:03.171Z,0
2023-10-01T18:15:02.609Z,0
2023-10-01T18:30:03.171Z,0
2023-10-01T18:45:02.471Z,0
2023-10-01T19:00:02.927Z,0
2023-10-01T19:15:02.340Z,0
2023-10-01T19:30:02.776Z,0
2023-10-01T19:45:03.221Z,0
2023-10-01T20:00:02.647Z,0
2023-10-01T20:15:03.206Z,0
2023-10-01T20:30:02.534Z,0
2023-10-01T20:45:03.212Z,0
2023-10-01T21:00:02.428Z,0
2023-10-01T21:15:02.827Z,0
2023-10-01T21:30:02.274Z,0
2023-10-01T21:45:02.698Z,0
2023-10-01T22:00:03.223Z,0
2023-10-01T22:15:02.545Z,0
2023-10-01T22:30:03.223Z,0
2023-10-01T22:45:02.483Z,0
2023-10-01T23:00:02.946Z,0
2023-10-01T23:15:02.462Z,0
2023-10-01T23:30:02.804Z,0
2023-10-01T23:45:03.243Z,0
